Horrel Hill, South Carolina
Current Conditions -  °F | °C
As of 10:58 AM on Saturday 25 Oct 2014 (Local Time) from KMMT Reporting Station
Clear Clear  
Wind Chill: 65°   Ceiling: Unl
Heat Index: 65°   Visibility: 10mi
Dew Point: 40°   Wind: 7mph
Humidity: 40%   Direction: 10°N
Pressure: 30.05"   Gusts: NA
Location:  33.8814°N, 80.8478°W
Report Text: KMMT 251458Z 01006KT 10SM CLR 18/04 A3005 RMK AO2A SLP178 T01810042 51005
Loading
Personal Weather Stations






























Interactive Weather Map
Tropical Storm Tracking
New forecast layout! Learn more

10-Day Weather Forecast

Advertisements
Track Severe Weather on mobile